Time;durP1;ratioP1;P1;durP2;ratioP2;P2;SDS_P1;SDS_P2;PMS_P1;PMS_P2;Temp;Humidity;BMP_temperature;BMP_pressure;BME280_temperature;BME280_humidity;BME280_pressure;Samples;Min_cycle;Max_cycle;Signal;HPM_P1;HPM_P2
2023/03/01 00:01:19;;;;;;;16.92;9.23;;;-2.00;99.90;;;;;;5154813;27;20130;-79
2023/03/01 00:03:45;;;;;;;16.38;9.90;;;-1.90;99.90;;;;;;5155619;27;20049;-79
2023/03/01 00:06:11;;;;;;;14.63;9.73;;;-2.40;99.90;;;;;;5155518;27;20429;-79
2023/03/01 00:08:37;;;;;;;13.82;9.32;;;-1.20;99.90;;;;;;5137247;27;20081;-80
2023/03/01 00:11:07;;;;;;;17.05;8.60;;;-2.00;99.90;;;;;;5119903;27;20046;-80
2023/03/01 00:13:34;;;;;;;16.90;9.65;;;-2.00;99.90;;;;;;5137645;27;20104;-79
2023/03/01 00:16:05;;;;;;;17.37;8.87;;;-2.00;99.90;;;;;;5155510;27;20042;-79
2023/03/01 00:18:32;;;;;;;22.30;9.50;;;-2.10;99.90;;;;;;5155547;27;20065;-79
2023/03/01 00:20:57;;;;;;;18.58;9.98;;;-2.30;99.90;;;;;;5155285;27;20454;-80
2023/03/01 00:23:24;;;;;;;18.40;10.68;;;-1.80;99.90;;;;;;5155350;27;20085;-80
2023/03/01 00:25:50;;;;;;;17.60;9.43;;;-2.20;99.90;;;;;;5120103;27;20363;-79
2023/03/01 00:28:16;;;;;;;17.70;9.93;;;-2.10;99.90;;;;;;5155272;27;20042;-79
2023/03/01 00:30:42;;;;;;;15.47;9.13;;;-2.10;99.90;;;;;;5120131;27;20042;-80
2023/03/01 00:33:08;;;;;;;16.02;8.95;;;-2.10;99.90;;;;;;5136992;27;20534;-79
2023/03/01 00:35:34;;;;;;;18.90;10.10;;;-2.10;99.90;;;;;;5119405;27;20050;-80
2023/03/01 00:38:00;;;;;;;18.02;10.27;;;-2.10;99.90;;;;;;5155275;27;20126;-80
2023/03/01 00:40:27;;;;;;;14.73;9.10;;;-2.00;99.90;;;;;;5154878;27;20431;-79
2023/03/01 00:42:53;;;;;;;17.45;9.98;;;-2.10;99.90;;;;;;5136870;27;20047;-80
2023/03/01 00:45:19;;;;;;;18.80;10.45;;;-2.10;99.90;;;;;;5155328;27;20497;-80
2023/03/01 00:47:44;;;;;;;16.60;10.20;;;-1.90;99.90;;;;;;5155153;27;20035;-80
2023/03/01 00:50:11;;;;;;;14.32;8.82;;;-1.30;99.90;;;;;;5155188;27;20124;-80
2023/03/01 00:52:37;;;;;;;20.75;10.20;;;-0.80;99.90;;;;;;5155088;27;20053;-80
2023/03/01 00:55:04;;;;;;;16.40;9.75;;;-2.10;99.90;;;;;;5137269;27;20042;-79
2023/03/01 00:57:29;;;;;;;18.65;10.50;;;-2.10;99.90;;;;;;5154914;27;20035;-80
2023/03/01 00:59:55;;;;;;;16.20;9.43;;;-2.20;99.90;;;;;;5154891;27;20505;-79
2023/03/01 01:02:21;;;;;;;17.05;10.18;;;-2.30;99.90;;;;;;5136571;27;20087;-80
2023/03/01 01:04:47;;;;;;;20.40;11.25;;;-2.20;99.90;;;;;;5119545;27;20045;-80
2023/03/01 01:07:13;;;;;;;18.02;9.90;;;-2.90;99.90;;;;;;5154908;27;20043;-79
2023/03/01 01:09:39;;;;;;;19.17;10.05;;;-2.20;99.90;;;;;;5154662;27;20542;-80
2023/03/01 01:12:05;;;;;;;19.50;10.32;;;-2.40;99.90;;;;;;5137829;27;20039;-81
2023/03/01 01:14:31;;;;;;;19.83;11.47;;;-2.20;99.90;;;;;;5106386;27;20038;-80
2023/03/01 01:16:57;;;;;;;17.70;10.63;;;-1.90;99.90;;;;;;5140309;27;20038;-79
2023/03/01 01:19:23;;;;;;;17.42;10.43;;;-2.50;99.90;;;;;;5158621;27;20284;-79
2023/03/01 01:21:49;;;;;;;16.52;10.70;;;-2.30;99.90;;;;;;5140215;27;20382;-79
2023/03/01 01:24:15;;;;;;;18.00;9.80;;;-2.20;99.90;;;;;;5140493;27;20046;-79
2023/03/01 01:26:42;;;;;;;16.48;10.65;;;-2.60;99.90;;;;;;5123291;27;20125;-81
2023/03/01 01:29:08;;;;;;;19.23;10.45;;;-3.20;99.90;;;;;;5140313;27;20489;-79
2023/03/01 01:31:35;;;;;;;18.05;10.10;;;-1.60;99.90;;;;;;5139772;27;20057;-79
2023/03/01 01:34:02;;;;;;;;;;;-2.40;99.90;;;;;;5158784;27;20042;-79
2023/03/01 01:36:27;;;;;;;19.83;9.85;;;-2.40;99.90;;;;;;5140606;27;20379;-80
2023/03/01 01:38:53;;;;;;;15.55;9.15;;;-2.40;99.90;;;;;;5158322;27;20119;-80
2023/03/01 01:41:20;;;;;;;17.10;9.70;;;-2.50;99.90;;;;;;5158299;27;20066;-79
2023/03/01 01:44:10;;;;;;;18.27;9.75;;;-2.60;99.90;;;;;;5158151;27;20042;-79
2023/03/01 01:46:50;;;;;;;16.65;9.43;;;-2.70;99.90;;;;;;5158071;27;20057;-79
2023/03/01 01:49:39;;;;;;;17.63;10.45;;;-2.10;99.90;;;;;;5122728;27;20065;-80
2023/03/01 01:52:16;;;;;;;20.17;12.25;;;-2.90;99.90;;;;;;5158286;27;20046;-79
2023/03/01 01:54:51;;;;;;;26.75;12.40;;;-2.20;99.90;;;;;;5139307;27;20042;-79
2023/03/01 01:57:22;;;;;;;21.23;11.02;;;-2.80;99.90;;;;;;5158221;27;20399;-80
2023/03/01 01:59:54;;;;;;;21.02;11.85;;;-2.80;99.90;;;;;;5139671;27;20148;-79
2023/03/01 02:02:20;;;;;;;19.35;12.27;;;-2.90;99.90;;;;;;5139439;27;20057;-79
2023/03/01 02:04:49;;;;;;;22.50;12.15;;;-2.80;99.90;;;;;;5157812;27;20039;-80
2023/03/01 02:07:19;;;;;;;20.50;11.07;;;-1.90;99.90;;;;;;5139260;27;20126;-80
2023/03/01 02:09:47;;;;;;;23.30;10.63;;;-2.70;99.90;;;;;;5157569;27;20038;-79
2023/03/01 02:12:16;;;;;;;20.02;11.75;;;-3.10;99.90;;;;;;5139259;27;20390;-80
2023/03/01 02:14:42;;;;;;;23.63;12.15;;;-2.70;99.90;;;;;;5157601;27;20043;-79
2023/03/01 02:17:09;;;;;;;19.63;12.07;;;-2.80;99.90;;;;;;5157452;27;20039;-79
2023/03/01 02:19:58;;;;;;;20.67;11.80;;;-2.70;99.90;;;;;;5122102;27;20114;-80
2023/03/01 02:22:28;;;;;;;20.67;12.68;;;-3.20;99.90;;;;;;5139737;27;20451;-79
2023/03/01 02:25:18;;;;;;;21.65;12.45;;;-2.00;99.90;;;;;;5156376;27;20121;-79
2023/03/01 02:28:02;;;;;;;21.48;11.75;;;-2.70;99.90;;;;;;5139130;27;20042;-79
2023/03/01 02:30:29;;;;;;;21.65;11.52;;;-2.80;99.90;;;;;;5157150;27;20054;-79
2023/03/01 02:33:02;;;;;;;24.63;11.98;;;-2.80;99.90;;;;;;5157199;27;20043;-79
2023/03/01 02:35:31;;;;;;;24.30;12.43;;;-2.80;99.90;;;;;;5157143;27;20039;-80
2023/03/01 02:38:00;;;;;;;22.73;12.15;;;-2.80;99.90;;;;;;5157134;27;20081;-79
2023/03/01 02:40:31;;;;;;;21.55;11.75;;;-2.80;99.90;;;;;;5157084;27;20046;-79
2023/03/01 02:42:58;;;;;;;21.92;11.80;;;-1.80;99.90;;;;;;5138869;27;20049;-79
2023/03/01 02:45:25;;;;;;;22.00;13.15;;;-3.30;99.90;;;;;;5156971;27;20039;-80
2023/03/01 02:47:53;;;;;;;;;;;-3.20;99.90;;;;;;5139041;27;20086;-79
2023/03/01 02:50:29;;;;;;;25.45;11.98;;;-3.20;99.90;;;;;;5156676;27;19926;-80
2023/03/01 02:52:58;;;;;;;19.00;11.40;;;-2.80;99.90;;;;;;5156963;27;20550;-79
2023/03/01 02:55:24;;;;;;;18.55;11.30;;;-2.80;99.90;;;;;;5156757;27;20065;-80
2023/03/01 02:57:50;;;;;;;23.50;12.35;;;-2.80;99.90;;;;;;5138204;27;20478;-80
2023/03/01 03:00:28;;;;;;;21.98;12.30;;;-2.90;99.90;;;;;;5156851;27;20050;-78
2023/03/01 03:02:56;;;;;;;23.95;12.93;;;-2.80;99.90;;;;;;5138649;27;20042;-79
2023/03/01 03:05:30;;;;;;;21.67;12.43;;;-2.70;99.90;;;;;;5121773;27;20084;-79
2023/03/01 03:07:57;;;;;;;19.70;11.57;;;-1.80;99.90;;;;;;5156551;27;20053;-79
2023/03/01 03:10:32;;;;;;;22.27;12.52;;;-2.80;99.90;;;;;;5137967;27;20081;-78
2023/03/01 03:13:04;;;;;;;23.90;11.85;;;-2.90;99.90;;;;;;5138389;27;20183;-78
2023/03/01 03:15:30;;;;;;;21.48;12.15;;;-2.90;99.90;;;;;;5156312;27;20038;-79
2023/03/01 03:17:57;;;;;;;21.15;12.82;;;-2.90;99.90;;;;;;5120949;27;20046;-79
2023/03/01 03:20:26;;;;;;;21.35;12.23;;;-2.90;99.90;;;;;;5137993;27;20042;-79
2023/03/01 03:22:53;;;;;;;23.05;12.05;;;-2.90;99.90;;;;;;5156199;27;20031;-80
2023/03/01 03:25:20;;;;;;;19.67;12.10;;;-2.90;99.90;;;;;;5156270;27;20046;-80
2023/03/01 03:27:47;;;;;;;19.38;12.02;;;-2.90;99.90;;;;;;5156139;27;20050;-78
2023/03/01 03:30:16;;;;;;;20.50;11.40;;;-3.10;99.90;;;;;;5137586;27;20042;-79
2023/03/01 03:32:52;;;;;;;19.67;11.95;;;-3.10;99.90;;;;;;5156046;27;20050;-80
2023/03/01 03:35:24;;;;;;;24.45;12.70;;;-3.10;99.90;;;;;;5156037;27;20039;-79
2023/03/01 03:38:02;;;;;;;21.40;12.15;;;-3.30;99.90;;;;;;5137718;27;20486;-78
2023/03/01 03:40:34;;;;;;;20.30;12.63;;;-3.10;99.90;;;;;;5156306;27;20039;-79
2023/03/01 03:43:00;;;;;;;23.00;12.45;;;-3.10;99.90;;;;;;5155929;27;20046;-78
2023/03/01 03:45:26;;;;;;;20.70;12.23;;;-2.20;99.90;;;;;;5155881;27;20130;-78
2023/03/01 03:47:51;;;;;;;23.52;11.55;;;-2.90;99.90;;;;;;5120461;27;20482;-79
2023/03/01 03:50:18;;;;;;;21.10;11.88;;;-3.40;99.90;;;;;;5137196;27;20047;-80
2023/03/01 03:52:44;;;;;;;25.08;12.73;;;-3.30;99.90;;;;;;5155785;27;20088;-80
2023/03/01 03:55:11;;;;;;;23.15;12.20;;;-2.70;99.90;;;;;;5120306;27;20469;-78
2023/03/01 03:57:37;;;;;;;;;;;-3.30;99.90;;;;;;5156061;27;20043;-79
2023/03/01 04:00:05;;;;;;;28.23;12.95;;;-3.30;99.90;;;;;;5137659;27;19926;-78
2023/03/01 04:02:30;;;;;;;22.27;12.43;;;-3.50;99.90;;;;;;5120196;27;20066;-79
2023/03/01 04:04:56;;;;;;;25.88;12.65;;;-3.60;99.90;;;;;;5155680;27;20486;-78
2023/03/01 04:07:22;;;;;;;25.48;12.65;;;-3.50;99.90;;;;;;5137686;27;20476;-78
2023/03/01 04:09:47;;;;;;;22.40;12.70;;;-3.60;99.90;;;;;;5137795;27;20043;-79
2023/03/01 04:12:13;;;;;;;23.75;12.13;;;-3.70;99.90;;;;;;5155734;27;20035;-78
2023/03/01 04:14:38;;;;;;;22.90;12.65;;;-2.70;99.90;;;;;;5155473;27;20549;-79
2023/03/01 04:17:05;;;;;;;24.48;12.13;;;-3.50;99.90;;;;;;5155347;27;20046;-78
2023/03/01 04:19:35;;;;;;;30.20;13.18;;;-3.10;99.90;;;;;;5155979;27;20050;-79
2023/03/01 04:22:07;;;;;;;22.60;12.63;;;-3.00;99.90;;;;;;5155859;27;20123;-78
2023/03/01 04:24:33;;;;;;;34.40;13.85;;;-3.70;99.90;;;;;;5138233;27;20402;-79
2023/03/01 04:26:59;;;;;;;25.00;13.23;;;-3.50;99.90;;;;;;5155370;27;20122;-79
2023/03/01 04:29:24;;;;;;;26.92;14.00;;;-3.90;99.90;;;;;;5155348;27;20341;-78
2023/03/01 04:31:50;;;;;;;26.85;14.48;;;-3.80;99.90;;;;;;5155378;27;20042;-79
2023/03/01 04:34:15;;;;;;;25.48;14.02;;;-3.50;99.90;;;;;;5155303;27;20415;-78
2023/03/01 04:36:41;;;;;;;27.90;13.13;;;-3.50;99.90;;;;;;5137061;27;20045;-79
2023/03/01 04:39:11;;;;;;;29.27;14.27;;;-3.60;99.90;;;;;;5137161;27;20482;-78
2023/03/01 04:41:43;;;;;;;25.58;13.52;;;-2.20;99.90;;;;;;5137300;27;20064;-78
2023/03/01 04:44:09;;;;;;;30.45;14.10;;;-3.60;99.90;;;;;;5136748;27;20050;-78
2023/03/01 04:46:35;;;;;;;24.80;13.53;;;-3.50;99.90;;;;;;5155760;27;20035;-79
2023/03/01 04:49:01;;;;;;;30.95;14.68;;;-3.80;99.90;;;;;;5123394;27;20486;-78
2023/03/01 04:51:27;;;;;;;30.08;13.57;;;-3.80;99.90;;;;;;5159595;27;20427;-78
2023/03/01 04:53:52;;;;;;;24.88;13.68;;;-3.70;99.90;;;;;;5159264;27;20053;-79
2023/03/01 04:56:18;;;;;;;26.53;13.47;;;-3.20;99.90;;;;;;5159347;27;20474;-78
2023/03/01 04:58:45;;;;;;;28.58;13.07;;;-3.80;99.90;;;;;;5159399;27;20034;-78
2023/03/01 05:01:17;;;;;;;24.73;13.55;;;-3.70;99.90;;;;;;5141327;27;20046;-78
2023/03/01 05:03:44;;;;;;;22.55;12.93;;;-3.80;99.90;;;;;;5158816;27;20043;-78
2023/03/01 05:06:11;;;;;;;27.70;14.52;;;-3.60;99.90;;;;;;5123562;27;20046;-78
2023/03/01 05:08:38;;;;;;;25.75;13.05;;;-2.20;99.90;;;;;;5158967;27;20039;-77
2023/03/01 05:11:05;;;;;;;25.55;13.82;;;-3.60;99.90;;;;;;5158924;27;20095;-78
2023/03/01 05:13:31;;;;;;;;;;;-3.70;99.90;;;;;;5159193;27;20047;-78
2023/03/01 05:15:59;;;;;;;21.58;13.45;;;-3.50;99.90;;;;;;5158696;27;19919;-77
2023/03/01 05:18:26;;;;;;;27.00;13.20;;;-2.30;99.90;;;;;;5158722;27;20410;-78
2023/03/01 05:20:56;;;;;;;24.33;13.95;;;-3.20;99.90;;;;;;5158691;27;20501;-79
2023/03/01 05:23:22;;;;;;;28.08;14.90;;;-3.60;99.90;;;;;;5158756;27;20125;-77
2023/03/01 05:25:48;;;;;;;23.02;13.18;;;-3.80;99.90;;;;;;5158502;27;20138;-78
2023/03/01 05:28:15;;;;;;;25.27;13.15;;;-4.10;99.90;;;;;;5158515;27;20082;-78
2023/03/01 05:30:41;;;;;;;25.88;14.40;;;-3.30;99.90;;;;;;5140253;27;20035;-77
2023/03/01 05:33:13;;;;;;;20.80;11.77;;;-3.50;99.90;;;;;;5158431;27;20085;-77
2023/03/01 05:35:43;;;;;;;23.85;12.77;;;-3.70;99.90;;;;;;5158417;27;20035;-77
2023/03/01 05:38:15;;;;;;;23.35;12.73;;;-3.70;99.90;;;;;;5140021;27;20095;-77
2023/03/01 05:40:44;;;;;;;21.75;12.43;;;-3.50;99.90;;;;;;5158088;27;20504;-77
2023/03/01 05:43:12;;;;;;;21.88;12.38;;;-3.80;99.90;;;;;;5139839;27;20050;-77
2023/03/01 05:45:38;;;;;;;23.92;13.02;;;-3.90;99.90;;;;;;5158215;27;20129;-78
2023/03/01 05:48:05;;;;;;;23.60;13.18;;;-4.00;99.90;;;;;;5158157;27;20530;-78
2023/03/01 05:50:37;;;;;;;22.42;12.40;;;-3.60;99.90;;;;;;5158077;27;20051;-77
2023/03/01 05:53:05;;;;;;;21.95;12.50;;;-3.70;99.90;;;;;;5158075;27;20050;-75
2023/03/01 05:55:31;;;;;;;22.30;12.50;;;-3.80;99.90;;;;;;5157940;27;20046;-80
2023/03/01 05:58:02;;;;;;;21.70;12.07;;;-2.50;99.90;;;;;;5139181;27;20121;-77
2023/03/01 06:00:29;;;;;;;24.48;12.10;;;-3.70;99.90;;;;;;5158220;27;20447;-78
2023/03/01 06:02:55;;;;;;;;;;;-3.70;99.90;;;;;;5158324;27;20042;-77
2023/03/01 06:05:22;;;;;;;23.38;12.60;;;-3.40;99.90;;;;;;5157878;27;19919;-83
2023/03/01 06:07:48;;;;;;;26.60;13.65;;;-3.20;99.90;;;;;;5122598;27;20054;-86
2023/03/01 06:10:14;;;;;;;23.40;12.27;;;-2.20;99.90;;;;;;5122753;27;20043;-83
2023/03/01 06:12:42;;;;;;;24.15;12.63;;;-4.10;99.90;;;;;;5139381;27;20050;-83
2023/03/01 06:15:09;;;;;;;23.30;12.38;;;-4.30;99.90;;;;;;5122346;27;20046;-84
2023/03/01 06:17:37;;;;;;;20.00;12.10;;;-3.90;99.90;;;;;;5139103;27;20440;-85
2023/03/01 06:20:10;;;;;;;21.30;12.93;;;-4.30;99.90;;;;;;5139640;27;20035;-83
2023/03/01 06:22:36;;;;;;;22.63;12.82;;;-4.00;99.90;;;;;;5157872;27;20042;-84
2023/03/01 06:25:01;;;;;;;21.35;11.80;;;-2.10;99.90;;;;;;5157890;27;20042;-84
2023/03/01 06:27:27;;;;;;;23.17;12.55;;;-4.20;99.90;;;;;;5139247;27;20534;-84
2023/03/01 06:29:53;;;;;;;23.02;11.48;;;-3.90;99.90;;;;;;5139552;27;20121;-85
2023/03/01 06:32:18;;;;;;;20.88;12.57;;;-3.90;99.90;;;;;;5122483;27;20478;-84
2023/03/01 06:34:44;;;;;;;24.47;13.17;;;-3.30;99.90;;;;;;5140171;27;20095;-83
2023/03/01 06:37:10;;;;;;;20.33;13.20;;;-4.30;99.90;;;;;;5122619;27;20046;-84
2023/03/01 06:39:35;;;;;;;31.02;13.75;;;-4.00;99.90;;;;;;5123021;27;20192;-83
2023/03/01 06:42:01;;;;;;;24.77;13.50;;;-3.30;99.90;;;;;;5157350;27;20049;-84
2023/03/01 06:44:27;;;;;;;23.08;12.45;;;-3.50;99.90;;;;;;5122090;27;20050;-83
2023/03/01 06:46:53;;;;;;;22.38;12.68;;;-3.50;99.90;;;;;;5139134;27;20172;-84
2023/03/01 06:49:23;;;;;;;23.30;13.10;;;-4.00;99.90;;;;;;5135602;27;20083;-83
2023/03/01 06:51:49;;;;;;;23.65;14.85;;;-3.80;99.90;;;;;;5118688;27;20502;-84
2023/03/01 06:54:15;;;;;;;25.98;13.88;;;-4.20;99.90;;;;;;5118338;27;20090;-83
2023/03/01 06:56:40;;;;;;;25.67;14.07;;;-4.10;99.90;;;;;;5136545;27;20378;-84
2023/03/01 06:59:06;;;;;;;27.75;13.45;;;-4.10;99.90;;;;;;5118078;27;20035;-83
2023/03/01 07:01:32;;;;;;;22.73;12.70;;;-1.50;99.90;;;;;;5134906;27;20088;-79
2023/03/01 07:03:57;;;;;;;28.60;15.20;;;-4.50;99.90;;;;;;5134955;27;20035;-80
2023/03/01 07:06:23;;;;;;;30.93;14.53;;;-4.00;99.90;;;;;;5117581;27;20421;-79
2023/03/01 07:08:49;;;;;;;26.98;14.63;;;-3.80;99.90;;;;;;5135909;27;20212;-79
2023/03/01 07:11:15;;;;;;;28.30;14.77;;;-1.90;99.90;;;;;;5134575;27;20061;-78
2023/03/01 07:13:40;;;;;;;34.22;15.80;;;-3.10;99.90;;;;;;5135790;27;20390;-77
2023/03/01 07:16:06;;;;;;;31.75;17.70;;;-2.30;99.90;;;;;;5135644;27;20078;-78
2023/03/01 07:18:32;;;;;;;38.30;19.07;;;-3.60;99.90;;;;;;5135576;27;20051;-78
2023/03/01 07:20:58;;;;;;;31.77;16.63;;;-3.50;99.90;;;;;;5135646;27;20064;-78
2023/03/01 07:23:23;;;;;;;28.87;15.87;;;-3.50;99.90;;;;;;5135699;27;20066;-77
2023/03/01 07:25:53;;;;;;;31.95;17.30;;;-3.30;99.90;;;;;;5134424;27;20039;-77
2023/03/01 07:28:19;;;;;;;33.75;16.60;;;-3.30;99.90;;;;;;5135444;27;20050;-77
2023/03/01 07:30:45;;;;;;;31.17;16.20;;;-3.40;99.90;;;;;;5117625;27;20051;-78
2023/03/01 07:33:11;;;;;;;32.20;16.08;;;-1.40;99.90;;;;;;5135489;27;20495;-78
2023/03/01 07:35:36;;;;;;;31.65;17.05;;;-1.40;99.90;;;;;;5134364;27;20035;-79
2023/03/01 07:38:02;;;;;;;37.05;18.52;;;-3.20;99.90;;;;;;5117277;27;20195;-78
2023/03/01 07:40:27;;;;;;;32.47;17.92;;;-2.10;99.90;;;;;;5134108;27;20147;-77
2023/03/01 07:42:57;;;;;;;38.35;19.67;;;-3.10;99.90;;;;;;5135617;27;20045;-77
2023/03/01 07:45:24;;;;;;;34.78;18.30;;;-3.00;99.90;;;;;;5135108;27;20437;-78
2023/03/01 07:47:51;;;;;;;40.38;20.10;;;-2.30;99.90;;;;;;5133970;27;20487;-78
2023/03/01 07:50:17;;;;;;;38.35;20.58;;;-1.80;99.90;;;;;;5148478;27;20058;-78
2023/03/01 07:52:46;;;;;;;37.83;20.27;;;-2.40;99.90;;;;;;5156304;27;20047;-78
2023/03/01 07:55:11;;;;;;;35.30;19.88;;;-1.80;99.90;;;;;;5155653;27;20121;-78
2023/03/01 07:57:37;;;;;;;41.17;20.00;;;-2.20;99.90;;;;;;5155664;27;20427;-77
2023/03/01 08:00:04;;;;;;;35.90;18.27;;;-1.20;99.90;;;;;;5155673;27;20047;-79
2023/03/01 08:02:29;;;;;;;37.78;20.23;;;-1.60;99.90;;;;;;5155532;27;20038;-77
2023/03/01 08:04:55;;;;;;;34.55;17.38;;;-0.80;99.90;;;;;;5155597;27;20397;-80
2023/03/01 08:07:20;;;;;;;33.58;18.08;;;-0.70;99.90;;;;;;5155548;27;20045;-78
2023/03/01 08:09:46;;;;;;;31.85;17.50;;;-1.20;99.90;;;;;;5137375;27;20042;-78
2023/03/01 08:12:12;;;;;;;28.02;17.38;;;-0.20;99.90;;;;;;5155497;27;20043;-78
2023/03/01 08:14:37;;;;;;;24.65;15.00;;;0.90;99.90;;;;;;5137324;27;20039;-78
2023/03/01 08:17:03;;;;;;;28.80;15.68;;;-0.70;99.90;;;;;;5155456;27;20035;-78
2023/03/01 08:19:29;;;;;;;30.85;16.40;;;0.40;99.90;;;;;;5155582;27;20171;-78
2023/03/01 08:21:57;;;;;;;31.77;16.13;;;-0.30;99.90;;;;;;5154704;27;20074;-79
2023/03/01 08:24:23;;;;;;;26.20;15.40;;;-0.30;99.90;;;;;;5155421;27;20054;-78
2023/03/01 08:26:49;;;;;;;27.45;16.27;;;0.00;99.90;;;;;;5156039;27;20043;-79
2023/03/01 08:29:15;;;;;;;22.80;14.73;;;0.00;99.90;;;;;;5137561;27;20511;-78
2023/03/01 08:31:40;;;;;;;27.08;15.52;;;0.20;99.90;;;;;;5136964;27;20047;-78
2023/03/01 08:34:16;;;;;;;24.00;14.80;;;0.30;99.90;;;;;;5155299;27;20043;-77
2023/03/01 08:36:44;;;;;;;25.67;14.80;;;0.40;99.90;;;;;;5155299;27;20172;-78
2023/03/01 08:39:11;;;;;;;20.65;13.55;;;0.60;99.90;;;;;;5155474;27;20047;-77
2023/03/01 08:41:38;;;;;;;19.55;12.77;;;0.60;99.90;;;;;;5155455;27;20050;-81
2023/03/01 08:44:04;;;;;;;20.08;11.50;;;1.20;99.90;;;;;;5155292;27;20124;-80
2023/03/01 08:46:32;;;;;;;18.77;10.93;;;1.10;99.90;;;;;;5155221;27;20038;-80
2023/03/01 08:48:58;;;;;;;17.10;10.35;;;1.30;99.90;;;;;;5154921;27;20043;-76
2023/03/01 08:51:24;;;;;;;17.15;10.02;;;1.40;99.90;;;;;;5155124;27;20099;-79
2023/03/01 08:53:50;;;;;;;18.75;9.95;;;1.70;99.90;;;;;;5154955;27;20125;-78
2023/03/01 08:56:18;;;;;;;18.40;9.50;;;1.40;99.90;;;;;;5154964;27;20126;-78
2023/03/01 08:58:48;;;;;;;15.02;9.15;;;2.10;99.90;;;;;;5155286;27;20039;-80
2023/03/01 09:01:18;;;;;;;11.00;7.05;;;2.20;99.90;;;;;;5136778;27;20043;-80
2023/03/01 09:03:44;;;;;;;10.40;6.90;;;2.40;99.90;;;;;;5136379;27;20084;-84
2023/03/01 09:06:10;;;;;;;11.63;5.73;;;2.60;99.90;;;;;;5120036;27;20042;-78
2023/03/01 09:08:38;;;;;;;10.48;5.80;;;2.70;99.90;;;;;;5154773;27;20039;-77
2023/03/01 09:11:05;;;;;;;8.60;5.30;;;2.90;99.90;;;;;;5154755;27;20038;-77
2023/03/01 09:13:31;;;;;;;10.85;5.10;;;3.00;99.90;;;;;;5154694;27;20051;-76
2023/03/01 09:15:58;;;;;;;6.97;5.22;;;3.20;99.90;;;;;;5154337;27;20050;-77
2023/03/01 09:18:23;;;;;;;9.52;5.72;;;3.30;99.90;;;;;;5154595;27;20057;-81
2023/03/01 09:20:49;;;;;;;9.25;4.63;;;3.40;99.90;;;;;;5136388;27;20035;-80
2023/03/01 09:23:15;;;;;;;8.73;4.78;;;3.60;99.90;;;;;;5136073;27;20129;-82
2023/03/01 09:25:40;;;;;;;7.57;4.63;;;3.60;99.90;;;;;;5136327;27;20486;-81
2023/03/01 09:28:06;;;;;;;7.68;4.63;;;3.70;99.90;;;;;;5136091;27;20367;-79
2023/03/01 09:30:32;;;;;;;8.68;4.60;;;3.80;99.90;;;;;;5154639;27;20139;-79
2023/03/01 09:32:57;;;;;;;6.20;4.32;;;3.90;99.90;;;;;;5155667;27;20043;-81
2023/03/01 09:35:23;;;;;;;7.18;4.68;;;3.90;99.90;;;;;;5150433;27;20076;-81
2023/03/01 09:37:49;;;;;;;8.23;4.88;;;4.00;99.90;;;;;;5137577;27;20041;-83
2023/03/01 09:40:21;;;;;;;10.65;4.65;;;4.10;99.90;;;;;;5138202;27;20043;-81
2023/03/01 09:43:08;;;;;;;6.18;4.28;;;4.20;99.90;;;;;;5158034;27;20093;-79
2023/03/01 09:45:38;;;;;;;7.70;4.43;;;4.20;99.90;;;;;;5139599;27;20050;-83
2023/03/01 09:48:09;;;;;;;6.03;3.85;;;4.30;99.90;;;;;;5139723;27;20053;-81
2023/03/01 09:50:39;;;;;;;4.75;3.45;;;4.40;99.90;;;;;;5158109;27;20142;-83
2023/03/01 09:53:15;;;;;;;6.15;3.90;;;4.40;99.90;;;;;;5157655;27;20554;-85
2023/03/01 09:56:04;;;;;;;5.75;3.67;;;4.60;99.90;;;;;;5139425;27;20042;-84
2023/03/01 09:58:34;;;;;;;5.65;3.15;;;4.70;99.90;;;;;;5139138;27;20477;-78
2023/03/01 10:01:09;;;;;;;4.65;3.10;;;4.60;99.90;;;;;;5139259;27;20042;-83
2023/03/01 10:03:42;;;;;;;5.95;3.58;;;4.60;99.90;;;;;;5157729;27;20089;-79
2023/03/01 10:06:23;;;;;;;5.25;3.40;;;4.70;99.90;;;;;;5157729;27;20045;-81
2023/03/01 10:08:55;;;;;;;6.20;3.63;;;4.70;99.90;;;;;;5139534;27;20409;-81
2023/03/01 10:11:37;;;;;;;6.25;3.28;;;4.70;99.90;;;;;;5157408;27;20485;-78
2023/03/01 10:14:35;;;;;;;5.28;3.33;;;4.70;99.90;;;;;;5157977;27;20043;-78
2023/03/01 10:17:08;;;;;;;4.53;3.70;;;4.80;99.90;;;;;;5139159;27;20048;-82
2023/03/01 10:19:41;;;;;;;6.07;3.58;;;4.80;99.90;;;;;;5157786;27;20053;-81
2023/03/01 10:22:22;;;;;;;4.97;3.60;;;4.90;99.90;;;;;;5157716;27;20053;-80
2023/03/01 10:24:51;;;;;;;7.85;3.38;;;4.90;99.90;;;;;;5120911;27;20111;-80
2023/03/01 10:27:34;;;;;;;5.07;3.40;;;4.90;99.90;;;;;;5156695;27;20039;-79
2023/03/01 10:30:19;;;;;;;5.22;3.10;;;5.00;99.90;;;;;;5157318;27;20096;-80
2023/03/01 10:32:48;;;;;;;5.32;3.28;;;5.10;99.90;;;;;;5121766;27;20050;-80
2023/03/01 10:35:19;;;;;;;5.07;3.25;;;5.20;99.90;;;;;;5157108;27;20034;-82
2023/03/01 10:38:16;;;;;;;6.20;3.78;;;5.30;99.90;;;;;;5138320;27;20041;-82
2023/03/01 10:40:56;;;;;;;6.97;3.50;;;5.40;99.90;;;;;;5138727;27;20041;-82
2023/03/01 10:43:22;;;;;;;4.78;3.00;;;5.50;99.90;;;;;;5157110;27;20046;-82
2023/03/01 10:45:48;;;;;;;5.63;3.38;;;5.50;99.90;;;;;;5156267;27;20051;-81
2023/03/01 10:48:23;;;;;;;5.75;3.35;;;5.50;99.90;;;;;;5138163;27;20118;-82
2023/03/01 10:51:03;;;;;;;7.60;3.63;;;5.50;99.90;;;;;;5120808;27;20055;-82
2023/03/01 10:53:41;;;;;;;6.55;3.67;;;6.30;99.90;;;;;;5156872;27;20105;-80
2023/03/01 10:56:10;;;;;;;5.15;3.50;;;5.60;99.90;;;;;;5156587;27;20129;-80
2023/03/01 10:58:55;;;;;;;7.85;4.03;;;6.50;99.90;;;;;;5156221;27;20043;-82
2023/03/01 11:01:22;;;;;;;8.25;3.90;;;5.90;99.90;;;;;;5156286;27;20402;-81
2023/03/01 11:04:05;;;;;;;6.82;4.00;;;5.80;99.90;;;;;;5156600;27;20051;-81
2023/03/01 11:06:32;;;;;;;5.93;3.90;;;5.80;99.90;;;;;;5156478;27;20047;-78
2023/03/01 11:09:22;;;;;;;6.05;3.70;;;5.80;99.90;;;;;;5156096;27;20046;-82
2023/03/01 11:12:00;;;;;;;6.05;3.65;;;5.90;99.90;;;;;;5156505;27;20442;-81
2023/03/01 11:14:47;;;;;;;5.93;3.95;;;6.00;99.90;;;;;;5156382;27;20137;-81
2023/03/01 11:17:23;;;;;;;7.05;3.80;;;6.10;99.90;;;;;;5137857;27;20130;-82
2023/03/01 11:20:11;;;;;;;7.90;3.70;;;6.20;99.90;;;;;;5156223;27;20086;-81
2023/03/01 11:22:46;;;;;;;6.50;4.57;;;6.30;99.90;;;;;;5156141;27;20402;-78
2023/03/01 11:25:13;;;;;;;7.55;4.22;;;6.30;99.90;;;;;;5156110;27;20062;-78
2023/03/01 11:27:45;;;;;;;6.82;4.30;;;6.30;99.90;;;;;;5156133;27;20039;-78
2023/03/01 11:30:28;;;;;;;7.40;4.78;;;6.40;99.90;;;;;;5156103;27;20038;-80
2023/03/01 11:33:17;;;;;;;6.70;4.25;;;6.40;99.90;;;;;;5137662;27;20124;-81
2023/03/01 11:36:07;;;;;;;7.43;4.68;;;6.40;99.90;;;;;;5125967;27;20053;-83
2023/03/01 11:38:36;;;;;;;8.40;4.75;;;6.50;99.90;;;;;;5137147;27;20069;-84
2023/03/01 11:41:14;;;;;;;6.25;4.50;;;6.50;99.90;;;;;;5137477;27;20042;-80
2023/03/01 11:43:58;;;;;;;7.47;4.43;;;6.60;99.90;;;;;;5155637;27;20161;-80
2023/03/01 11:46:33;;;;;;;5.53;4.03;;;6.60;99.90;;;;;;5155524;27;20078;-83
2023/03/01 11:49:04;;;;;;;7.78;5.07;;;6.70;99.90;;;;;;5155509;27;20065;-80
2023/03/01 11:51:33;;;;;;;6.05;4.25;;;6.80;99.90;;;;;;5155990;27;20087;-81
2023/03/01 11:54:05;;;;;;;7.47;4.72;;;6.90;99.90;;;;;;5155642;27;20051;-81
2023/03/01 11:56:49;;;;;;;7.20;4.60;;;6.90;99.90;;;;;;5154978;27;20444;-79
2023/03/01 11:59:32;;;;;;;10.65;5.25;;;6.90;99.90;;;;;;5155931;27;20130;-78
2023/03/01 12:02:33;;;;;;;8.57;4.82;;;7.00;99.90;;;;;;5156209;27;20048;-80
2023/03/01 12:05:24;;;;;;;8.18;5.10;;;7.10;99.90;;;;;;5137375;27;20043;-78
2023/03/01 12:08:08;;;;;;;8.27;4.68;;;7.20;99.90;;;;;;5136943;27;20035;-82
2023/03/01 12:11:00;;;;;;;7.75;4.28;;;7.30;99.90;;;;;;5135908;27;20122;-81
2023/03/01 12:14:04;;;;;;;7.65;4.55;;;7.40;99.90;;;;;;5136695;27;20058;-80
2023/03/01 12:16:34;;;;;;;7.38;4.63;;;7.40;99.90;;;;;;5070857;28;20044;-80
2023/03/01 12:19:38;;;;;;;9.77;5.03;;;7.50;99.90;;;;;;5123055;27;20145;-81
2023/03/01 12:22:27;;;;;;;8.30;5.30;;;7.60;99.90;;;;;;5050943;28;20048;-81
2023/03/01 12:25:12;;;;;;;9.82;5.25;;;7.50;99.90;;;;;;5145075;27;20086;-80
2023/03/01 12:27:40;;;;;;;8.30;5.03;;;7.40;99.90;;;;;;5155052;27;20042;-80
2023/03/01 12:30:18;;;;;;;6.85;4.68;;;7.50;99.90;;;;;;5154824;27;20039;-80
2023/03/01 12:33:04;;;;;;;6.68;4.80;;;7.60;99.90;;;;;;5154739;27;20375;-81
2023/03/01 12:35:48;;;;;;;7.75;5.03;;;7.60;99.90;;;;;;5155033;27;20057;-81
2023/03/01 12:38:34;;;;;;;9.15;5.35;;;7.80;99.90;;;;;;5136599;27;20039;-82
2023/03/01 12:41:24;;;;;;;7.15;4.60;;;7.60;99.90;;;;;;5154652;27;20047;-82
2023/03/01 12:44:17;;;;;;;8.57;4.57;;;7.60;99.90;;;;;;5136867;27;20049;-83
2023/03/01 12:47:33;;;;;;;8.98;5.32;;;7.70;99.90;;;;;;5155151;27;20038;-83
2023/03/01 12:50:16;;;;;;;10.23;5.63;;;7.70;99.90;;;;;;5093443;27;20109;-81
2023/03/01 12:52:54;;;;;;;10.02;5.40;;;7.70;99.90;;;;;;5155226;27;20043;-82
2023/03/01 12:55:38;;;;;;;10.13;5.60;;;7.80;99.90;;;;;;5154982;27;20040;-81